sensor_id;sensor_type;location;lat;lon;timestamp;P1;durP1;ratioP1;P2;durP2;ratioP2
55063;SDS011;40963;52.168;21.296;2022-10-23T00:01:20;46.40;;;17.23;;
55063;SDS011;40963;52.168;21.296;2022-10-23T00:04:02;39.22;;;17.15;;
55063;SDS011;40963;52.168;21.296;2022-10-23T00:06:33;44.53;;;16.95;;
55063;SDS011;40963;52.168;21.296;2022-10-23T00:08:59;39.80;;;17.17;;
55063;SDS011;40963;52.168;21.296;2022-10-23T00:11:27;45.83;;;17.10;;
55063;SDS011;40963;52.168;21.296;2022-10-23T00:13:55;41.30;;;16.75;;
55063;SDS011;40963;52.168;21.296;2022-10-23T00:16:22;43.88;;;16.70;;
55063;SDS011;40963;52.168;21.296;2022-10-23T00:18:48;45.78;;;18.02;;
55063;SDS011;40963;52.168;21.296;2022-10-23T00:21:14;41.88;;;17.67;;
55063;SDS011;40963;52.168;21.296;2022-10-23T00:23:40;41.22;;;17.95;;
55063;SDS011;40963;52.168;21.296;2022-10-23T00:26:07;50.17;;;19.38;;
55063;SDS011;40963;52.168;21.296;2022-10-23T00:28:35;45.22;;;17.08;;
55063;SDS011;40963;52.168;21.296;2022-10-23T00:31:03;50.58;;;17.98;;
55063;SDS011;40963;52.168;21.296;2022-10-23T00:33:29;36.22;;;17.15;;
55063;SDS011;40963;52.168;21.296;2022-10-23T00:35:56;39.50;;;16.75;;
55063;SDS011;40963;52.168;21.296;2022-10-23T00:38:21;47.97;;;19.35;;
55063;SDS011;40963;52.168;21.296;2022-10-23T00:40:47;44.63;;;18.77;;
55063;SDS011;40963;52.168;21.296;2022-10-23T00:43:20;42.40;;;15.80;;
55063;SDS011;40963;52.168;21.296;2022-10-23T00:45:49;45.47;;;16.45;;
55063;SDS011;40963;52.168;21.296;2022-10-23T00:48:15;49.70;;;17.95;;
55063;SDS011;40963;52.168;21.296;2022-10-23T00:50:42;39.08;;;16.95;;
55063;SDS011;40963;52.168;21.296;2022-10-23T00:53:09;43.65;;;16.58;;
55063;SDS011;40963;52.168;21.296;2022-10-23T00:55:37;36.83;;;16.38;;
55063;SDS011;40963;52.168;21.296;2022-10-23T00:58:09;37.47;;;17.25;;
55063;SDS011;40963;52.168;21.296;2022-10-23T01:00:49;39.17;;;16.20;;
55063;SDS011;40963;52.168;21.296;2022-10-23T01:03:18;40.22;;;17.50;;
55063;SDS011;40963;52.168;21.296;2022-10-23T01:05:50;43.58;;;17.48;;
55063;SDS011;40963;52.168;21.296;2022-10-23T01:11:08;39.08;;;16.00;;
55063;SDS011;40963;52.168;21.296;2022-10-23T01:13:41;35.13;;;16.48;;
55063;SDS011;40963;52.168;21.296;2022-10-23T01:16:17;41.95;;;17.30;;
55063;SDS011;40963;52.168;21.296;2022-10-23T01:18:58;44.47;;;16.90;;
55063;SDS011;40963;52.168;21.296;2022-10-23T01:21:33;38.35;;;17.08;;
55063;SDS011;40963;52.168;21.296;2022-10-23T01:24:28;38.60;;;17.63;;
55063;SDS011;40963;52.168;21.296;2022-10-23T01:27:18;47.25;;;18.35;;
55063;SDS011;40963;52.168;21.296;2022-10-23T01:29:46;42.33;;;17.63;;
55063;SDS011;40963;52.168;21.296;2022-10-23T01:32:29;46.42;;;17.98;;
55063;SDS011;40963;52.168;21.296;2022-10-23T01:37:52;42.97;;;17.90;;
55063;SDS011;40963;52.168;21.296;2022-10-23T01:40:28;40.28;;;17.92;;
55063;SDS011;40963;52.168;21.296;2022-10-23T01:43:03;50.50;;;17.88;;
55063;SDS011;40963;52.168;21.296;2022-10-23T01:45:35;42.92;;;19.00;;
55063;SDS011;40963;52.168;21.296;2022-10-23T01:48:06;45.03;;;19.42;;
55063;SDS011;40963;52.168;21.296;2022-10-23T01:50:36;43.00;;;18.92;;
55063;SDS011;40963;52.168;21.296;2022-10-23T01:53:03;46.83;;;18.52;;
55063;SDS011;40963;52.168;21.296;2022-10-23T01:55:30;49.40;;;18.80;;
55063;SDS011;40963;52.168;21.296;2022-10-23T01:57:56;38.83;;;17.25;;
55063;SDS011;40963;52.168;21.296;2022-10-23T02:00:24;40.97;;;18.38;;
55063;SDS011;40963;52.168;21.296;2022-10-23T02:02:50;46.97;;;19.83;;
55063;SDS011;40963;52.168;21.296;2022-10-23T02:05:19;49.13;;;18.77;;
55063;SDS011;40963;52.168;21.296;2022-10-23T02:07:47;48.08;;;19.88;;
55063;SDS011;40963;52.168;21.296;2022-10-23T02:10:14;46.10;;;18.27;;
55063;SDS011;40963;52.168;21.296;2022-10-23T02:15:20;49.72;;;19.27;;
55063;SDS011;40963;52.168;21.296;2022-10-23T02:20:41;49.90;;;19.05;;
55063;SDS011;40963;52.168;21.296;2022-10-23T02:28:22;50.13;;;18.48;;
55063;SDS011;40963;52.168;21.296;2022-10-23T02:30:51;52.00;;;18.45;;
55063;SDS011;40963;52.168;21.296;2022-10-23T02:33:18;47.60;;;18.23;;
55063;SDS011;40963;52.168;21.296;2022-10-23T02:35:45;48.10;;;18.13;;
55063;SDS011;40963;52.168;21.296;2022-10-23T02:40:55;45.20;;;18.48;;
55063;SDS011;40963;52.168;21.296;2022-10-23T02:43:33;42.25;;;18.55;;
55063;SDS011;40963;52.168;21.296;2022-10-23T02:46:11;46.38;;;17.77;;
55063;SDS011;40963;52.168;21.296;2022-10-23T02:48:47;51.83;;;17.02;;
55063;SDS011;40963;52.168;21.296;2022-10-23T02:51:21;40.70;;;17.85;;
55063;SDS011;40963;52.168;21.296;2022-10-23T02:54:02;49.05;;;18.58;;
55063;SDS011;40963;52.168;21.296;2022-10-23T02:56:39;48.42;;;19.17;;
55063;SDS011;40963;52.168;21.296;2022-10-23T02:59:32;46.97;;;19.55;;
55063;SDS011;40963;52.168;21.296;2022-10-23T03:04:59;44.75;;;20.10;;
55063;SDS011;40963;52.168;21.296;2022-10-23T03:07:26;42.95;;;17.23;;
55063;SDS011;40963;52.168;21.296;2022-10-23T03:09:51;57.15;;;19.50;;
55063;SDS011;40963;52.168;21.296;2022-10-23T03:12:17;52.58;;;18.38;;
55063;SDS011;40963;52.168;21.296;2022-10-23T03:14:43;52.70;;;19.55;;
55063;SDS011;40963;52.168;21.296;2022-10-23T03:17:08;46.92;;;19.02;;
55063;SDS011;40963;52.168;21.296;2022-10-23T03:19:34;57.58;;;19.80;;
55063;SDS011;40963;52.168;21.296;2022-10-23T03:22:00;53.20;;;19.58;;
55063;SDS011;40963;52.168;21.296;2022-10-23T03:24:25;49.13;;;18.52;;
55063;SDS011;40963;52.168;21.296;2022-10-23T03:26:51;47.63;;;19.92;;
55063;SDS011;40963;52.168;21.296;2022-10-23T03:29:19;53.60;;;19.35;;
55063;SDS011;40963;52.168;21.296;2022-10-23T03:31:45;59.10;;;20.10;;
55063;SDS011;40963;52.168;21.296;2022-10-23T03:34:10;55.38;;;19.58;;
55063;SDS011;40963;52.168;21.296;2022-10-23T03:36:37;56.15;;;19.17;;
55063;SDS011;40963;52.168;21.296;2022-10-23T03:39:03;51.63;;;20.63;;
55063;SDS011;40963;52.168;21.296;2022-10-23T03:41:29;50.65;;;19.38;;
55063;SDS011;40963;52.168;21.296;2022-10-23T03:43:55;52.83;;;20.25;;
55063;SDS011;40963;52.168;21.296;2022-10-23T03:46:21;54.95;;;19.52;;
55063;SDS011;40963;52.168;21.296;2022-10-23T03:48:46;55.28;;;21.33;;
55063;SDS011;40963;52.168;21.296;2022-10-23T03:51:12;50.40;;;20.52;;
55063;SDS011;40963;52.168;21.296;2022-10-23T03:53:38;57.63;;;21.52;;
55063;SDS011;40963;52.168;21.296;2022-10-23T03:56:03;61.28;;;21.90;;
55063;SDS011;40963;52.168;21.296;2022-10-23T03:58:29;49.13;;;19.85;;
55063;SDS011;40963;52.168;21.296;2022-10-23T04:00:55;51.33;;;20.08;;
55063;SDS011;40963;52.168;21.296;2022-10-23T04:03:21;52.80;;;21.65;;
55063;SDS011;40963;52.168;21.296;2022-10-23T04:05:47;53.22;;;20.27;;
55063;SDS011;40963;52.168;21.296;2022-10-23T04:08:13;47.35;;;20.90;;
55063;SDS011;40963;52.168;21.296;2022-10-23T04:10:38;62.58;;;20.58;;
55063;SDS011;40963;52.168;21.296;2022-10-23T04:13:04;55.95;;;20.85;;
55063;SDS011;40963;52.168;21.296;2022-10-23T04:15:30;55.83;;;21.40;;
55063;SDS011;40963;52.168;21.296;2022-10-23T04:17:55;68.38;;;21.88;;
55063;SDS011;40963;52.168;21.296;2022-10-23T04:20:21;51.97;;;18.65;;
55063;SDS011;40963;52.168;21.296;2022-10-23T04:22:47;54.53;;;20.80;;
55063;SDS011;40963;52.168;21.296;2022-10-23T04:25:12;45.03;;;18.80;;
55063;SDS011;40963;52.168;21.296;2022-10-23T04:27:38;50.35;;;19.15;;
55063;SDS011;40963;52.168;21.296;2022-10-23T04:30:03;52.63;;;19.40;;
55063;SDS011;40963;52.168;21.296;2022-10-23T04:32:29;52.65;;;21.10;;
55063;SDS011;40963;52.168;21.296;2022-10-23T04:34:55;58.42;;;20.70;;
55063;SDS011;40963;52.168;21.296;2022-10-23T04:37:21;49.88;;;21.25;;
55063;SDS011;40963;52.168;21.296;2022-10-23T04:39:46;60.22;;;21.63;;
55063;SDS011;40963;52.168;21.296;2022-10-23T04:42:12;56.97;;;21.83;;
55063;SDS011;40963;52.168;21.296;2022-10-23T04:44:38;67.38;;;21.35;;
55063;SDS011;40963;52.168;21.296;2022-10-23T04:47:03;55.85;;;22.08;;
55063;SDS011;40963;52.168;21.296;2022-10-23T04:49:29;57.45;;;22.35;;
55063;SDS011;40963;52.168;21.296;2022-10-23T04:51:54;63.60;;;22.80;;
55063;SDS011;40963;52.168;21.296;2022-10-23T04:54:20;63.97;;;24.17;;
55063;SDS011;40963;52.168;21.296;2022-10-23T04:56:46;56.72;;;22.58;;
55063;SDS011;40963;52.168;21.296;2022-10-23T04:59:11;55.90;;;22.08;;
55063;SDS011;40963;52.168;21.296;2022-10-23T05:01:37;59.75;;;23.23;;
55063;SDS011;40963;52.168;21.296;2022-10-23T05:04:03;55.05;;;22.25;;
55063;SDS011;40963;52.168;21.296;2022-10-23T05:06:28;75.32;;;24.17;;
55063;SDS011;40963;52.168;21.296;2022-10-23T05:08:54;74.03;;;23.45;;
55063;SDS011;40963;52.168;21.296;2022-10-23T05:11:20;74.82;;;24.13;;
55063;SDS011;40963;52.168;21.296;2022-10-23T05:13:46;68.35;;;24.42;;
55063;SDS011;40963;52.168;21.296;2022-10-23T05:16:12;67.82;;;23.70;;
55063;SDS011;40963;52.168;21.296;2022-10-23T05:18:52;59.72;;;22.60;;
55063;SDS011;40963;52.168;21.296;2022-10-23T05:21:22;59.28;;;21.08;;
55063;SDS011;40963;52.168;21.296;2022-10-23T05:23:51;57.13;;;22.58;;
55063;SDS011;40963;52.168;21.296;2022-10-23T05:26:18;55.70;;;20.98;;
55063;SDS011;40963;52.168;21.296;2022-10-23T05:28:43;58.67;;;21.55;;
55063;SDS011;40963;52.168;21.296;2022-10-23T05:31:09;59.92;;;21.80;;
55063;SDS011;40963;52.168;21.296;2022-10-23T05:33:36;71.72;;;23.60;;
55063;SDS011;40963;52.168;21.296;2022-10-23T05:36:02;63.80;;;23.15;;
55063;SDS011;40963;52.168;21.296;2022-10-23T05:38:28;53.20;;;20.88;;
55063;SDS011;40963;52.168;21.296;2022-10-23T05:40:56;68.47;;;23.20;;
55063;SDS011;40963;52.168;21.296;2022-10-23T05:43:22;54.47;;;21.20;;
55063;SDS011;40963;52.168;21.296;2022-10-23T05:45:49;63.15;;;22.40;;
55063;SDS011;40963;52.168;21.296;2022-10-23T05:48:15;50.45;;;21.50;;
55063;SDS011;40963;52.168;21.296;2022-10-23T05:50:41;51.58;;;20.98;;
55063;SDS011;40963;52.168;21.296;2022-10-23T05:53:08;59.53;;;22.45;;
55063;SDS011;40963;52.168;21.296;2022-10-23T05:55:35;56.45;;;20.65;;
55063;SDS011;40963;52.168;21.296;2022-10-23T05:58:00;49.40;;;20.05;;
55063;SDS011;40963;52.168;21.296;2022-10-23T06:00:27;58.65;;;21.25;;
55063;SDS011;40963;52.168;21.296;2022-10-23T06:02:52;49.03;;;18.63;;
55063;SDS011;40963;52.168;21.296;2022-10-23T06:05:18;48.47;;;15.95;;
55063;SDS011;40963;52.168;21.296;2022-10-23T06:07:44;62.20;;;21.92;;
55063;SDS011;40963;52.168;21.296;2022-10-23T06:10:09;63.30;;;23.35;;
55063;SDS011;40963;52.168;21.296;2022-10-23T06:12:35;60.75;;;22.50;;
55063;SDS011;40963;52.168;21.296;2022-10-23T06:15:01;54.88;;;22.02;;
55063;SDS011;40963;52.168;21.296;2022-10-23T06:17:27;63.83;;;21.27;;
55063;SDS011;40963;52.168;21.296;2022-10-23T06:19:53;57.42;;;20.85;;
55063;SDS011;40963;52.168;21.296;2022-10-23T06:22:25;64.30;;;21.52;;
55063;SDS011;40963;52.168;21.296;2022-10-23T06:24:51;60.35;;;23.55;;
55063;SDS011;40963;52.168;21.296;2022-10-23T06:27:17;54.83;;;20.35;;
55063;SDS011;40963;52.168;21.296;2022-10-23T06:29:42;46.78;;;18.85;;
55063;SDS011;40963;52.168;21.296;2022-10-23T06:32:08;55.95;;;21.58;;
55063;SDS011;40963;52.168;21.296;2022-10-23T06:34:34;50.90;;;18.20;;
55063;SDS011;40963;52.168;21.296;2022-10-23T06:36:59;56.42;;;20.73;;
55063;SDS011;40963;52.168;21.296;2022-10-23T06:39:25;45.78;;;18.55;;
55063;SDS011;40963;52.168;21.296;2022-10-23T06:41:51;55.55;;;21.52;;
55063;SDS011;40963;52.168;21.296;2022-10-23T06:44:16;49.40;;;16.52;;
55063;SDS011;40963;52.168;21.296;2022-10-23T06:46:42;48.78;;;18.13;;
55063;SDS011;40963;52.168;21.296;2022-10-23T06:49:11;56.70;;;21.23;;
55063;SDS011;40963;52.168;21.296;2022-10-23T06:51:38;51.08;;;20.77;;
55063;SDS011;40963;52.168;21.296;2022-10-23T06:54:04;51.03;;;19.60;;
55063;SDS011;40963;52.168;21.296;2022-10-23T06:56:29;49.42;;;18.30;;
55063;SDS011;40963;52.168;21.296;2022-10-23T06:58:55;51.22;;;19.10;;
55063;SDS011;40963;52.168;21.296;2022-10-23T07:01:21;47.13;;;17.63;;
55063;SDS011;40963;52.168;21.296;2022-10-23T07:03:47;44.17;;;17.33;;
55063;SDS011;40963;52.168;21.296;2022-10-23T07:06:13;49.05;;;18.15;;
55063;SDS011;40963;52.168;21.296;2022-10-23T07:08:38;42.17;;;16.65;;
55063;SDS011;40963;52.168;21.296;2022-10-23T07:11:05;47.90;;;17.73;;
55063;SDS011;40963;52.168;21.296;2022-10-23T07:13:33;42.72;;;15.25;;
55063;SDS011;40963;52.168;21.296;2022-10-23T07:16:07;34.60;;;15.93;;
55063;SDS011;40963;52.168;21.296;2022-10-23T07:18:41;47.45;;;17.48;;
55063;SDS011;40963;52.168;21.296;2022-10-23T07:21:07;48.55;;;17.58;;
55063;SDS011;40963;52.168;21.296;2022-10-23T07:23:33;39.97;;;17.15;;
55063;SDS011;40963;52.168;21.296;2022-10-23T07:26:09;44.75;;;18.02;;
55063;SDS011;40963;52.168;21.296;2022-10-23T07:28:40;41.78;;;15.90;;
55063;SDS011;40963;52.168;21.296;2022-10-23T07:31:10;42.17;;;15.80;;
55063;SDS011;40963;52.168;21.296;2022-10-23T07:33:36;48.22;;;16.75;;
55063;SDS011;40963;52.168;21.296;2022-10-23T07:36:03;44.50;;;15.02;;
55063;SDS011;40963;52.168;21.296;2022-10-23T07:38:29;35.65;;;15.93;;
55063;SDS011;40963;52.168;21.296;2022-10-23T07:40:55;35.03;;;15.23;;
55063;SDS011;40963;52.168;21.296;2022-10-23T07:43:22;44.25;;;16.08;;
55063;SDS011;40963;52.168;21.296;2022-10-23T07:45:49;34.50;;;14.93;;
55063;SDS011;40963;52.168;21.296;2022-10-23T07:48:15;40.38;;;14.68;;
55063;SDS011;40963;52.168;21.296;2022-10-23T07:50:40;187.77;;;60.88;;
55063;SDS011;40963;52.168;21.296;2022-10-23T07:53:08;59.63;;;22.13;;
55063;SDS011;40963;52.168;21.296;2022-10-23T07:55:40;60.35;;;24.65;;
55063;SDS011;40963;52.168;21.296;2022-10-23T07:58:06;48.78;;;18.80;;
55063;SDS011;40963;52.168;21.296;2022-10-23T08:00:31;36.60;;;15.43;;
55063;SDS011;40963;52.168;21.296;2022-10-23T08:02:57;33.35;;;14.35;;
55063;SDS011;40963;52.168;21.296;2022-10-23T08:05:22;37.65;;;15.23;;
55063;SDS011;40963;52.168;21.296;2022-10-23T08:07:48;37.15;;;16.55;;
55063;SDS011;40963;52.168;21.296;2022-10-23T08:10:13;41.45;;;14.30;;
55063;SDS011;40963;52.168;21.296;2022-10-23T08:12:39;31.05;;;13.80;;
55063;SDS011;40963;52.168;21.296;2022-10-23T08:15:05;32.85;;;14.90;;
55063;SDS011;40963;52.168;21.296;2022-10-23T08:17:31;31.40;;;12.95;;
55063;SDS011;40963;52.168;21.296;2022-10-23T08:19:56;32.85;;;14.10;;
55063;SDS011;40963;52.168;21.296;2022-10-23T08:22:22;32.20;;;13.30;;
55063;SDS011;40963;52.168;21.296;2022-10-23T08:24:47;29.92;;;14.43;;
55063;SDS011;40963;52.168;21.296;2022-10-23T08:27:13;28.10;;;13.85;;
55063;SDS011;40963;52.168;21.296;2022-10-23T08:29:39;29.88;;;13.38;;
55063;SDS011;40963;52.168;21.296;2022-10-23T08:32:04;30.35;;;13.20;;
55063;SDS011;40963;52.168;21.296;2022-10-23T08:34:30;29.00;;;14.27;;
55063;SDS011;40963;52.168;21.296;2022-10-23T08:36:56;29.83;;;13.18;;
55063;SDS011;40963;52.168;21.296;2022-10-23T08:39:21;31.92;;;13.45;;
55063;SDS011;40963;52.168;21.296;2022-10-23T08:41:48;38.50;;;13.48;;
55063;SDS011;40963;52.168;21.296;2022-10-23T08:46:41;28.10;;;12.27;;
55063;SDS011;40963;52.168;21.296;2022-10-23T08:52:11;27.08;;;10.93;;
55063;SDS011;40963;52.168;21.296;2022-10-23T08:57:26;28.15;;;12.98;;
55063;SDS011;40963;52.168;21.296;2022-10-23T09:00:02;24.08;;;12.35;;
55063;SDS011;40963;52.168;21.296;2022-10-23T09:02:32;28.95;;;12.38;;
55063;SDS011;40963;52.168;21.296;2022-10-23T09:05:02;26.70;;;11.73;;
55063;SDS011;40963;52.168;21.296;2022-10-23T09:07:35;23.30;;;12.00;;
55063;SDS011;40963;52.168;21.296;2022-10-23T09:16:06;34.45;;;12.10;;
55063;SDS011;40963;52.168;21.296;2022-10-23T09:18:40;23.70;;;11.88;;
55063;SDS011;40963;52.168;21.296;2022-10-23T09:21:10;25.35;;;12.43;;
55063;SDS011;40963;52.168;21.296;2022-10-23T09:23:36;32.13;;;13.48;;
55063;SDS011;40963;52.168;21.296;2022-10-23T09:26:03;28.85;;;13.10;;
55063;SDS011;40963;52.168;21.296;2022-10-23T09:28:40;29.23;;;12.13;;
55063;SDS011;40963;52.168;21.296;2022-10-23T09:31:29;31.80;;;13.48;;
55063;SDS011;40963;52.168;21.296;2022-10-23T09:33:56;31.67;;;12.45;;
55063;SDS011;40963;52.168;21.296;2022-10-23T09:36:23;30.25;;;12.93;;
55063;SDS011;40963;52.168;21.296;2022-10-23T09:38:52;31.25;;;12.18;;
55063;SDS011;40963;52.168;21.296;2022-10-23T09:44:12;25.92;;;12.15;;
55063;SDS011;40963;52.168;21.296;2022-10-23T09:46:48;27.15;;;12.75;;
55063;SDS011;40963;52.168;21.296;2022-10-23T09:49:18;27.80;;;12.20;;
55063;SDS011;40963;52.168;21.296;2022-10-23T09:51:48;21.05;;;12.45;;
55063;SDS011;40963;52.168;21.296;2022-10-23T09:54:15;28.48;;;13.25;;
55063;SDS011;40963;52.168;21.296;2022-10-23T09:56:45;31.35;;;13.02;;
55063;SDS011;40963;52.168;21.296;2022-10-23T10:01:46;22.50;;;12.48;;
55063;SDS011;40963;52.168;21.296;2022-10-23T10:04:16;27.17;;;12.88;;
55063;SDS011;40963;52.168;21.296;2022-10-23T10:06:42;27.63;;;12.93;;
55063;SDS011;40963;52.168;21.296;2022-10-23T10:09:14;26.90;;;12.43;;
55063;SDS011;40963;52.168;21.296;2022-10-23T10:11:51;26.90;;;13.90;;
55063;SDS011;40963;52.168;21.296;2022-10-23T10:17:26;30.05;;;12.20;;
55063;SDS011;40963;52.168;21.296;2022-10-23T10:31:09;27.75;;;12.95;;
55063;SDS011;40963;52.168;21.296;2022-10-23T10:34:16;23.73;;;12.93;;
55063;SDS011;40963;52.168;21.296;2022-10-23T10:56:10;21.80;;;11.50;;
55063;SDS011;40963;52.168;21.296;2022-10-23T10:58:46;44.83;;;15.93;;
55063;SDS011;40963;52.168;21.296;2022-10-23T11:03:52;75.85;;;22.63;;
55063;SDS011;40963;52.168;21.296;2022-10-23T11:06:22;27.73;;;9.43;;
55063;SDS011;40963;52.168;21.296;2022-10-23T11:08:50;52.60;;;19.23;;
55063;SDS011;40963;52.168;21.296;2022-10-23T11:11:20;54.33;;;20.63;;
55063;SDS011;40963;52.168;21.296;2022-10-23T11:13:59;24.05;;;13.48;;
55063;SDS011;40963;52.168;21.296;2022-10-23T11:16:27;32.33;;;16.08;;
55063;SDS011;40963;52.168;21.296;2022-10-23T11:19:06;52.65;;;19.60;;
55063;SDS011;40963;52.168;21.296;2022-10-23T11:37:42;26.95;;;12.48;;
55063;SDS011;40963;52.168;21.296;2022-10-23T11:45:25;20.88;;;10.80;;
55063;SDS011;40963;52.168;21.296;2022-10-23T11:48:18;21.08;;;9.52;;
55063;SDS011;40963;52.168;21.296;2022-10-23T11:55:56;15.05;;;6.85;;
55063;SDS011;40963;52.168;21.296;2022-10-23T11:58:23;15.90;;;8.48;;
55063;SDS011;40963;52.168;21.296;2022-10-23T12:01:00;15.43;;;7.65;;
55063;SDS011;40963;52.168;21.296;2022-10-23T12:03:34;16.17;;;7.70;;
55063;SDS011;40963;52.168;21.296;2022-10-23T12:09:23;12.43;;;8.38;;
55063;SDS011;40963;52.168;21.296;2022-10-23T12:12:13;17.30;;;7.90;;
55063;SDS011;40963;52.168;21.296;2022-10-23T12:14:48;14.90;;;8.00;;
55063;SDS011;40963;52.168;21.296;2022-10-23T12:19:47;15.18;;;8.30;;
55063;SDS011;40963;52.168;21.296;2022-10-23T12:22:14;15.32;;;8.90;;
55063;SDS011;40963;52.168;21.296;2022-10-23T12:27:43;17.50;;;8.60;;
55063;SDS011;40963;52.168;21.296;2022-10-23T12:30:30;14.60;;;8.25;;
55063;SDS011;40963;52.168;21.296;2022-10-23T12:38:48;17.25;;;8.48;;
55063;SDS011;40963;52.168;21.296;2022-10-23T12:41:15;30.90;;;11.93;;
55063;SDS011;40963;52.168;21.296;2022-10-23T12:43:44;37.70;;;12.70;;
55063;SDS011;40963;52.168;21.296;2022-10-23T12:46:21;57.30;;;16.92;;
55063;SDS011;40963;52.168;21.296;2022-10-23T12:48:54;19.30;;;9.77;;
55063;SDS011;40963;52.168;21.296;2022-10-23T12:51:22;18.08;;;11.40;;
55063;SDS011;40963;52.168;21.296;2022-10-23T12:53:50;17.40;;;9.70;;
55063;SDS011;40963;52.168;21.296;2022-10-23T12:56:15;21.05;;;10.02;;
55063;SDS011;40963;52.168;21.296;2022-10-23T12:58:48;17.98;;;10.93;;
55063;SDS011;40963;52.168;21.296;2022-10-23T13:01:29;17.92;;;10.15;;
55063;SDS011;40963;52.168;21.296;2022-10-23T13:03:57;18.40;;;9.07;;
55063;SDS011;40963;52.168;21.296;2022-10-23T13:09:14;12.55;;;8.45;;
55063;SDS011;40963;52.168;21.296;2022-10-23T13:11:46;15.75;;;9.07;;
55063;SDS011;40963;52.168;21.296;2022-10-23T13:14:12;13.38;;;8.75;;
55063;SDS011;40963;52.168;21.296;2022-10-23T13:16:38;18.13;;;8.60;;
55063;SDS011;40963;52.168;21.296;2022-10-23T13:19:03;14.48;;;8.27;;
55063;SDS011;40963;52.168;21.296;2022-10-23T13:21:29;15.05;;;8.65;;
55063;SDS011;40963;52.168;21.296;2022-10-23T13:23:56;15.65;;;8.25;;
55063;SDS011;40963;52.168;21.296;2022-10-23T13:28:49;13.18;;;7.25;;
55063;SDS011;40963;52.168;21.296;2022-10-23T13:33:44;16.17;;;8.68;;
55063;SDS011;40963;52.168;21.296;2022-10-23T13:38:44;14.20;;;9.27;;
55063;SDS011;40963;52.168;21.296;2022-10-23T13:41:15;18.08;;;8.88;;
55063;SDS011;40963;52.168;21.296;2022-10-23T13:43:42;14.95;;;8.73;;
55063;SDS011;40963;52.168;21.296;2022-10-23T13:46:27;15.02;;;8.55;;
55063;SDS011;40963;52.168;21.296;2022-10-23T13:48:53;13.40;;;8.93;;
55063;SDS011;40963;52.168;21.296;2022-10-23T13:51:20;11.90;;;9.05;;
55063;SDS011;40963;52.168;21.296;2022-10-23T13:53:48;14.98;;;8.75;;
55063;SDS011;40963;52.168;21.296;2022-10-23T13:56:16;13.00;;;8.52;;
55063;SDS011;40963;52.168;21.296;2022-10-23T13:58:43;15.50;;;9.00;;
55063;SDS011;40963;52.168;21.296;2022-10-23T14:03:54;17.15;;;9.70;;
55063;SDS011;40963;52.168;21.296;2022-10-23T14:06:21;12.30;;;9.02;;
55063;SDS011;40963;52.168;21.296;2022-10-23T14:08:47;17.80;;;9.63;;
55063;SDS011;40963;52.168;21.296;2022-10-23T14:11:13;21.95;;;10.65;;
55063;SDS011;40963;52.168;21.296;2022-10-23T14:13:40;18.80;;;10.15;;
55063;SDS011;40963;52.168;21.296;2022-10-23T14:16:06;19.90;;;10.45;;
55063;SDS011;40963;52.168;21.296;2022-10-23T14:18:34;14.73;;;9.43;;
55063;SDS011;40963;52.168;21.296;2022-10-23T14:21:03;16.58;;;9.52;;
55063;SDS011;40963;52.168;21.296;2022-10-23T14:23:29;18.70;;;10.50;;
55063;SDS011;40963;52.168;21.296;2022-10-23T14:26:05;16.10;;;10.13;;
55063;SDS011;40963;52.168;21.296;2022-10-23T14:28:32;17.48;;;10.35;;
55063;SDS011;40963;52.168;21.296;2022-10-23T14:31:08;24.27;;;11.10;;
55063;SDS011;40963;52.168;21.296;2022-10-23T14:33:35;17.38;;;10.45;;
55063;SDS011;40963;52.168;21.296;2022-10-23T14:36:01;18.75;;;10.93;;
55063;SDS011;40963;52.168;21.296;2022-10-23T14:38:27;18.27;;;10.43;;
55063;SDS011;40963;52.168;21.296;2022-10-23T14:40:53;21.08;;;11.20;;
55063;SDS011;40963;52.168;21.296;2022-10-23T14:43:19;16.38;;;11.57;;
55063;SDS011;40963;52.168;21.296;2022-10-23T14:45:45;30.67;;;12.68;;
55063;SDS011;40963;52.168;21.296;2022-10-23T14:48:10;20.83;;;12.02;;
55063;SDS011;40963;52.168;21.296;2022-10-23T14:50:36;18.83;;;10.82;;
55063;SDS011;40963;52.168;21.296;2022-10-23T14:53:07;21.75;;;12.68;;
55063;SDS011;40963;52.168;21.296;2022-10-23T14:55:33;18.40;;;12.05;;
55063;SDS011;40963;52.168;21.296;2022-10-23T14:57:59;25.42;;;13.38;;
55063;SDS011;40963;52.168;21.296;2022-10-23T15:00:24;28.90;;;13.23;;
55063;SDS011;40963;52.168;21.296;2022-10-23T15:02:50;21.27;;;12.88;;
55063;SDS011;40963;52.168;21.296;2022-10-23T15:05:16;27.80;;;12.93;;
55063;SDS011;40963;52.168;21.296;2022-10-23T15:07:42;19.33;;;12.40;;
55063;SDS011;40963;52.168;21.296;2022-10-23T15:10:07;22.58;;;13.32;;
55063;SDS011;40963;52.168;21.296;2022-10-23T15:12:34;22.52;;;13.10;;
55063;SDS011;40963;52.168;21.296;2022-10-23T15:15:00;29.50;;;13.23;;
55063;SDS011;40963;52.168;21.296;2022-10-23T15:17:26;23.58;;;12.60;;
55063;SDS011;40963;52.168;21.296;2022-10-23T15:19:51;26.48;;;14.50;;
55063;SDS011;40963;52.168;21.296;2022-10-23T15:22:17;23.80;;;13.00;;
55063;SDS011;40963;52.168;21.296;2022-10-23T15:24:43;20.65;;;12.32;;
55063;SDS011;40963;52.168;21.296;2022-10-23T15:27:10;23.13;;;12.55;;
55063;SDS011;40963;52.168;21.296;2022-10-23T15:29:35;20.90;;;12.65;;
55063;SDS011;40963;52.168;21.296;2022-10-23T15:32:01;19.75;;;13.30;;
55063;SDS011;40963;52.168;21.296;2022-10-23T15:34:29;19.67;;;12.95;;
55063;SDS011;40963;52.168;21.296;2022-10-23T15:36:56;18.45;;;13.20;;
55063;SDS011;40963;52.168;21.296;2022-10-23T15:39:23;19.70;;;12.68;;
55063;SDS011;40963;52.168;21.296;2022-10-23T15:41:52;19.42;;;11.80;;
55063;SDS011;40963;52.168;21.296;2022-10-23T15:44:20;22.45;;;12.35;;
55063;SDS011;40963;52.168;21.296;2022-10-23T15:46:48;20.38;;;12.05;;
55063;SDS011;40963;52.168;21.296;2022-10-23T15:49:14;27.73;;;12.60;;
55063;SDS011;40963;52.168;21.296;2022-10-23T15:51:40;22.38;;;12.55;;
55063;SDS011;40963;52.168;21.296;2022-10-23T15:54:07;18.30;;;11.50;;
55063;SDS011;40963;52.168;21.296;2022-10-23T15:56:34;20.58;;;8.98;;
55063;SDS011;40963;52.168;21.296;2022-10-23T15:59:00;23.45;;;11.57;;
55063;SDS011;40963;52.168;21.296;2022-10-23T16:01:26;16.45;;;10.25;;
55063;SDS011;40963;52.168;21.296;2022-10-23T16:03:52;18.63;;;9.48;;
55063;SDS011;40963;52.168;21.296;2022-10-23T16:06:20;13.23;;;8.55;;
55063;SDS011;40963;52.168;21.296;2022-10-23T16:08:46;13.70;;;8.50;;
55063;SDS011;40963;52.168;21.296;2022-10-23T16:13:41;17.35;;;9.90;;
55063;SDS011;40963;52.168;21.296;2022-10-23T16:16:08;19.38;;;9.25;;
55063;SDS011;40963;52.168;21.296;2022-10-23T16:18:34;14.73;;;9.02;;
55063;SDS011;40963;52.168;21.296;2022-10-23T16:20:59;21.05;;;8.98;;
55063;SDS011;40963;52.168;21.296;2022-10-23T16:23:25;16.15;;;9.88;;
55063;SDS011;40963;52.168;21.296;2022-10-23T16:25:52;17.25;;;9.32;;
55063;SDS011;40963;52.168;21.296;2022-10-23T16:28:18;14.07;;;8.82;;
55063;SDS011;40963;52.168;21.296;2022-10-23T16:30:44;14.40;;;7.63;;
55063;SDS011;40963;52.168;21.296;2022-10-23T16:33:10;13.82;;;9.45;;